CheckWX is a tool to help pilots better visualize weather data.  It is not intended as a substitute for an official pre-flight weather briefing.

19:03:48 UTC

KFRG METAR
Republic Airport
Farmingdale, New York, USA
Current

11 mins ago

KFRG 201853Z AUTO 34011G19KT 10SM OVC023 07/01 A2994 RMK AO2 SLP138 T00670011
Observed
Nov-20 @ 18:53 UTC
Wind
  • 340° at 11 KTS
  • Gusting to 19 KTS
Visibility
10 SM
Flight Rules
MVFR
Cloud Levels
  • Overcast at 2,300' AGL
Temperature
C / 45°F
Dewpoint
C / 34°F
Humidity
66%
Altimeter
29.94" Hg
Pressure
1013.92 hPa
Previous

1 hour ago

KFRG 201753Z AUTO 34013G20KT 10SM OVC020 06/01 A2993 RMK AO2 SLP134 T00610011 10061 20050 50001
Observed
Nov-20 @ 17:53 UTC
Wind
  • 340° at 13 KTS
  • Gusting to 20 KTS
Visibility
10 SM
Flight Rules
MVFR
Cloud Levels
  • Overcast at 2,000' AGL
Temperature
C / 43°F
Dewpoint
C / 34°F
Humidity
71%
Altimeter
29.93" Hg
Pressure
1013.52 hPa
Previous

2 hours ago

KFRG 201653Z AUTO 34009G16KT 10SM BKN018 OVC029 06/01 A2993 RMK AO2 SLP134 T00610006
Observed
Nov-20 @ 16:53 UTC
Wind
  • 340° at 9 KTS
  • Gusting to 16 KTS
Visibility
10 SM
Flight Rules
MVFR
Cloud Levels
  • Broken at 1,800' AGL
  • Overcast at 2,900' AGL
Temperature
C / 43°F
Dewpoint
C / 34°F
Humidity
71%
Altimeter
29.93" Hg
Pressure
1013.52 hPa